sensor_id;sensor_type;location;lat;lon;timestamp;pressure;altitude;pressure_sealevel;temperature;humidity
62849;BME280;48941;49.516;8.286;2022-08-14T00:01:58;99987.06;;;21.50;42.55
62849;BME280;48941;49.516;8.286;2022-08-14T00:04:28;99985.59;;;21.47;42.32
62849;BME280;48941;49.516;8.286;2022-08-14T00:07:02;99979.13;;;21.48;42.60
62849;BME280;48941;49.516;8.286;2022-08-14T00:09:32;99979.13;;;21.48;42.09
62849;BME280;48941;49.516;8.286;2022-08-14T00:12:20;99973.31;;;21.45;42.43
62849;BME280;48941;49.516;8.286;2022-08-14T00:15:01;99964.72;;;21.41;42.31
62849;BME280;48941;49.516;8.286;2022-08-14T00:17:30;99965.97;;;21.39;43.00
62849;BME280;48941;49.516;8.286;2022-08-14T00:20:13;99967.38;;;21.35;43.46
62849;BME280;48941;49.516;8.286;2022-08-14T00:22:50;99966.75;;;21.26;43.56
62849;BME280;48941;49.516;8.286;2022-08-14T00:25:24;99966.75;;;21.26;43.75
62849;BME280;48941;49.516;8.286;2022-08-14T00:28:09;99967.56;;;21.26;43.46
62849;BME280;48941;49.516;8.286;2022-08-14T00:30:45;99964.66;;;21.28;43.52
62849;BME280;48941;49.516;8.286;2022-08-14T00:33:13;99960.94;;;21.29;43.64
62849;BME280;48941;49.516;8.286;2022-08-14T00:35:42;99965.72;;;21.27;43.24
62849;BME280;48941;49.516;8.286;2022-08-14T00:38:31;99968.00;;;21.23;43.07
62849;BME280;48941;49.516;8.286;2022-08-14T00:41:01;99967.56;;;21.20;43.13
62849;BME280;48941;49.516;8.286;2022-08-14T00:43:29;99969.63;;;21.18;43.42
62849;BME280;48941;49.516;8.286;2022-08-14T00:46:03;99963.16;;;21.19;43.81
62849;BME280;48941;49.516;8.286;2022-08-14T00:48:51;99968.75;;;21.11;44.16
62849;BME280;48941;49.516;8.286;2022-08-14T00:51:19;99969.56;;;21.04;44.10
62849;BME280;48941;49.516;8.286;2022-08-14T00:53:48;99959.56;;;20.98;44.48
62849;BME280;48941;49.516;8.286;2022-08-14T00:56:18;99953.06;;;20.93;44.66
62849;BME280;48941;49.516;8.286;2022-08-14T00:58:47;99959.09;;;20.88;44.78
62849;BME280;48941;49.516;8.286;2022-08-14T01:01:19;99955.50;;;20.81;45.14
62849;BME280;48941;49.516;8.286;2022-08-14T01:03:47;99952.16;;;20.79;44.93
62849;BME280;48941;49.516;8.286;2022-08-14T01:06:18;99954.22;;;20.77;45.64
62849;BME280;48941;49.516;8.286;2022-08-14T01:08:46;99943.63;;;20.75;45.49
62849;BME280;48941;49.516;8.286;2022-08-14T01:11:24;99942.16;;;20.73;45.95
62849;BME280;48941;49.516;8.286;2022-08-14T01:14:02;99936.72;;;20.73;45.95
62849;BME280;48941;49.516;8.286;2022-08-14T01:16:52;99931.94;;;20.75;46.48
62849;BME280;48941;49.516;8.286;2022-08-14T01:19:21;99923.44;;;20.71;46.83
62849;BME280;48941;49.516;8.286;2022-08-14T01:22:08;99907.91;;;20.58;48.03
62849;BME280;48941;49.516;8.286;2022-08-14T01:24:38;99901.66;;;20.58;47.86
62849;BME280;48941;49.516;8.286;2022-08-14T01:27:13;99891.22;;;20.55;47.90
62849;BME280;48941;49.516;8.286;2022-08-14T01:29:41;99889.81;;;20.59;47.72
62849;BME280;48941;49.516;8.286;2022-08-14T01:32:29;99887.75;;;20.61;47.48
62849;BME280;48941;49.516;8.286;2022-08-14T01:35:09;99885.06;;;20.61;47.64
62849;BME280;48941;49.516;8.286;2022-08-14T01:37:58;99886.13;;;20.66;47.39
62849;BME280;48941;49.516;8.286;2022-08-14T01:40:27;99886.56;;;20.70;47.57
62849;BME280;48941;49.516;8.286;2022-08-14T01:43:02;99893.25;;;20.74;47.24
62849;BME280;48941;49.516;8.286;2022-08-14T01:45:30;99897.41;;;20.77;47.16
62849;BME280;48941;49.516;8.286;2022-08-14T01:48:05;99893.69;;;20.78;47.18
62849;BME280;48941;49.516;8.286;2022-08-14T01:50:40;99901.16;;;20.76;47.67
62849;BME280;48941;49.516;8.286;2022-08-14T01:53:12;99904.69;;;20.76;47.48
62849;BME280;48941;49.516;8.286;2022-08-14T01:55:40;99903.88;;;20.76;48.12
62849;BME280;48941;49.516;8.286;2022-08-14T01:58:08;99910.72;;;20.72;48.02
62849;BME280;48941;49.516;8.286;2022-08-14T02:00:54;99909.25;;;20.69;48.00
62849;BME280;48941;49.516;8.286;2022-08-14T02:03:27;99896.09;;;20.59;48.20
62849;BME280;48941;49.516;8.286;2022-08-14T02:05:57;99889.38;;;20.55;47.95
62849;BME280;48941;49.516;8.286;2022-08-14T02:08:46;99889.13;;;20.50;48.06
62849;BME280;48941;49.516;8.286;2022-08-14T02:11:21;99890.19;;;20.49;48.15
62849;BME280;48941;49.516;8.286;2022-08-14T02:13:53;99883.28;;;20.46;48.17
62849;BME280;48941;49.516;8.286;2022-08-14T02:16:34;99880.38;;;20.48;48.28
62849;BME280;48941;49.516;8.286;2022-08-14T02:19:06;99873.97;;;20.49;48.27
62849;BME280;48941;49.516;8.286;2022-08-14T02:21:36;99874.78;;;20.49;48.67
62849;BME280;48941;49.516;8.286;2022-08-14T02:24:18;99873.09;;;20.48;48.92
62849;BME280;48941;49.516;8.286;2022-08-14T02:27:06;99864.56;;;20.45;48.92
62849;BME280;48941;49.516;8.286;2022-08-14T02:29:56;99861.00;;;20.44;48.63
62849;BME280;48941;49.516;8.286;2022-08-14T02:32:27;99862.25;;;20.42;49.10
62849;BME280;48941;49.516;8.286;2022-08-14T02:35:10;99859.75;;;20.40;48.86
62849;BME280;48941;49.516;8.286;2022-08-14T02:37:43;99865.78;;;20.42;48.73
62849;BME280;48941;49.516;8.286;2022-08-14T02:40:16;99865.97;;;20.41;49.55
62849;BME280;48941;49.516;8.286;2022-08-14T02:42:44;99871.63;;;20.39;49.42
62849;BME280;48941;49.516;8.286;2022-08-14T02:45:23;99870.53;;;20.34;49.26
62849;BME280;48941;49.516;8.286;2022-08-14T02:48:05;99868.63;;;20.27;49.85
62849;BME280;48941;49.516;8.286;2022-08-14T02:50:54;99857.75;;;20.21;49.99
62849;BME280;48941;49.516;8.286;2022-08-14T02:53:26;99850.88;;;20.18;49.67
62849;BME280;48941;49.516;8.286;2022-08-14T02:55:56;99849.22;;;20.17;50.22
62849;BME280;48941;49.516;8.286;2022-08-14T02:58:30;99852.13;;;20.16;50.48
62849;BME280;48941;49.516;8.286;2022-08-14T03:00:58;99846.91;;;20.14;50.64
62849;BME280;48941;49.516;8.286;2022-08-14T03:03:27;99851.50;;;20.14;50.75
62849;BME280;48941;49.516;8.286;2022-08-14T03:06:00;99855.44;;;20.11;51.00
62849;BME280;48941;49.516;8.286;2022-08-14T03:08:29;99859.53;;;20.07;51.37
62849;BME280;48941;49.516;8.286;2022-08-14T03:11:01;99853.72;;;20.03;51.66
62849;BME280;48941;49.516;8.286;2022-08-14T03:13:34;99855.56;;;20.03;51.68
62849;BME280;48941;49.516;8.286;2022-08-14T03:16:05;99842.66;;;19.98;51.31
62849;BME280;48941;49.516;8.286;2022-08-14T03:18:37;99854.28;;;19.99;52.01
62849;BME280;48941;49.516;8.286;2022-08-14T03:21:09;99850.94;;;19.97;52.31
62849;BME280;48941;49.516;8.286;2022-08-14T03:23:39;99849.03;;;19.90;52.37
62849;BME280;48941;49.516;8.286;2022-08-14T03:26:11;99846.75;;;19.87;52.35
62849;BME280;48941;49.516;8.286;2022-08-14T03:28:54;99834.84;;;19.82;52.78
62849;BME280;48941;49.516;8.286;2022-08-14T03:31:27;99840.06;;;19.83;53.03
62849;BME280;48941;49.516;8.286;2022-08-14T03:33:56;99844.84;;;19.81;53.08
62849;BME280;48941;49.516;8.286;2022-08-14T03:36:26;99833.38;;;19.79;53.19
62849;BME280;48941;49.516;8.286;2022-08-14T03:39:17;99829.59;;;19.74;53.29
62849;BME280;48941;49.516;8.286;2022-08-14T03:41:52;99820.84;;;19.72;53.69
62849;BME280;48941;49.516;8.286;2022-08-14T03:44:21;99831.00;;;19.69;53.84
62849;BME280;48941;49.516;8.286;2022-08-14T03:47:09;99832.66;;;19.70;53.83
62849;BME280;48941;49.516;8.286;2022-08-14T03:49:37;99830.13;;;19.69;53.73
62849;BME280;48941;49.516;8.286;2022-08-14T03:52:08;99829.94;;;19.70;54.04
62849;BME280;48941;49.516;8.286;2022-08-14T03:54:56;99831.81;;;19.70;54.38
62849;BME280;48941;49.516;8.286;2022-08-14T03:57:26;99837.59;;;19.67;54.64
62849;BME280;48941;49.516;8.286;2022-08-14T04:00:04;99841.53;;;19.64;54.46
62849;BME280;48941;49.516;8.286;2022-08-14T04:02:39;99832.94;;;19.54;54.66
62849;BME280;48941;49.516;8.286;2022-08-14T04:05:13;99832.44;;;19.44;55.42
62849;BME280;48941;49.516;8.286;2022-08-14T04:07:42;99834.53;;;19.48;55.51
62849;BME280;48941;49.516;8.286;2022-08-14T04:10:30;99829.34;;;19.47;55.43
62849;BME280;48941;49.516;8.286;2022-08-14T04:13:01;99828.97;;;19.50;55.43
62849;BME280;48941;49.516;8.286;2022-08-14T04:15:30;99823.19;;;19.53;55.32
62849;BME280;48941;49.516;8.286;2022-08-14T04:18:18;99822.59;;;19.58;55.16
62849;BME280;48941;49.516;8.286;2022-08-14T04:20:46;99824.47;;;19.57;55.54
62849;BME280;48941;49.516;8.286;2022-08-14T04:23:21;99816.91;;;19.53;55.57
62849;BME280;48941;49.516;8.286;2022-08-14T04:25:55;99820.59;;;19.45;56.30
62849;BME280;48941;49.516;8.286;2022-08-14T04:28:24;99821.22;;;19.47;56.33
62849;BME280;48941;49.516;8.286;2022-08-14T04:31:12;99827.09;;;19.50;55.73
62849;BME280;48941;49.516;8.286;2022-08-14T04:33:41;99827.09;;;19.50;56.03
62849;BME280;48941;49.516;8.286;2022-08-14T04:36:09;99822.72;;;19.49;55.67
62849;BME280;48941;49.516;8.286;2022-08-14T04:38:42;99827.09;;;19.50;55.84
62849;BME280;48941;49.516;8.286;2022-08-14T04:41:33;99827.28;;;19.49;56.07
62849;BME280;48941;49.516;8.286;2022-08-14T04:44:20;99825.81;;;19.46;55.85
62849;BME280;48941;49.516;8.286;2022-08-14T04:47:02;99820.38;;;19.40;56.44
62849;BME280;48941;49.516;8.286;2022-08-14T04:49:44;99825.13;;;19.38;56.68
62849;BME280;48941;49.516;8.286;2022-08-14T04:52:23;99825.75;;;19.40;56.39
62849;BME280;48941;49.516;8.286;2022-08-14T04:54:51;99824.72;;;19.41;56.19
62849;BME280;48941;49.516;8.286;2022-08-14T04:57:20;99829.09;;;19.42;56.83
62849;BME280;48941;49.516;8.286;2022-08-14T04:59:50;99820.38;;;19.40;56.81
62849;BME280;48941;49.516;8.286;2022-08-14T05:02:18;99826.84;;;19.45;56.94
62849;BME280;48941;49.516;8.286;2022-08-14T05:04:54;99816.69;;;19.47;56.92
62849;BME280;48941;49.516;8.286;2022-08-14T05:07:24;99815.47;;;19.50;57.27
62849;BME280;48941;49.516;8.286;2022-08-14T05:10:12;99815.09;;;19.53;57.17
62849;BME280;48941;49.516;8.286;2022-08-14T05:12:47;99814.66;;;19.56;57.92
62849;BME280;48941;49.516;8.286;2022-08-14T05:15:38;99811.38;;;19.61;57.76
62849;BME280;48941;49.516;8.286;2022-08-14T05:18:09;99809.94;;;19.65;58.14
62849;BME280;48941;49.516;8.286;2022-08-14T05:21:00;99809.22;;;19.71;58.31
62849;BME280;48941;49.516;8.286;2022-08-14T05:23:49;99809.91;;;19.80;58.66
62849;BME280;48941;49.516;8.286;2022-08-14T05:26:20;99819.53;;;19.89;59.11
62849;BME280;48941;49.516;8.286;2022-08-14T05:28:48;99819.16;;;19.99;58.88
62849;BME280;48941;49.516;8.286;2022-08-14T05:31:18;99824.00;;;20.03;59.07
62849;BME280;48941;49.516;8.286;2022-08-14T05:33:46;99822.75;;;20.06;58.44
62849;BME280;48941;49.516;8.286;2022-08-14T05:36:23;99821.13;;;20.12;58.17
62849;BME280;48941;49.516;8.286;2022-08-14T05:38:52;99819.28;;;20.19;58.09
62849;BME280;48941;49.516;8.286;2022-08-14T05:41:21;99815.13;;;20.23;58.40
62849;BME280;48941;49.516;8.286;2022-08-14T05:44:09;99814.38;;;20.29;58.65
62849;BME280;48941;49.516;8.286;2022-08-14T05:46:39;99812.50;;;20.36;58.56
62849;BME280;48941;49.516;8.286;2022-08-14T05:49:08;99805.91;;;20.45;58.94
62849;BME280;48941;49.516;8.286;2022-08-14T05:51:37;99813.63;;;20.55;59.09
62849;BME280;48941;49.516;8.286;2022-08-14T05:54:07;99816.00;;;20.65;59.50
62849;BME280;48941;49.516;8.286;2022-08-14T05:56:45;99811.03;;;20.75;59.95
62849;BME280;48941;49.516;8.286;2022-08-14T05:59:13;99805.44;;;20.83;59.98
62849;BME280;48941;49.516;8.286;2022-08-14T06:01:43;99803.78;;;20.89;60.46
62849;BME280;48941;49.516;8.286;2022-08-14T06:04:12;99798.38;;;20.96;60.50
62849;BME280;48941;49.516;8.286;2022-08-14T06:06:41;99794.03;;;21.01;60.34
62849;BME280;48941;49.516;8.286;2022-08-14T06:09:09;99788.59;;;21.08;60.83
62849;BME280;48941;49.516;8.286;2022-08-14T06:11:37;99798.59;;;21.14;60.78
62849;BME280;48941;49.516;8.286;2022-08-14T06:14:05;99788.63;;;21.21;60.60
62849;BME280;48941;49.516;8.286;2022-08-14T06:16:47;99791.13;;;21.29;60.25
62849;BME280;48941;49.516;8.286;2022-08-14T06:19:18;99789.91;;;21.39;60.19
62849;BME280;48941;49.516;8.286;2022-08-14T06:21:48;99790.34;;;21.49;60.18
62849;BME280;48941;49.516;8.286;2022-08-14T06:24:25;99790.94;;;21.58;59.69
62849;BME280;48941;49.516;8.286;2022-08-14T06:27:00;99795.31;;;21.65;59.39
62849;BME280;48941;49.516;8.286;2022-08-14T06:29:31;99784.47;;;21.72;59.40
62849;BME280;48941;49.516;8.286;2022-08-14T06:32:03;99777.78;;;21.81;59.40
62849;BME280;48941;49.516;8.286;2022-08-14T06:34:51;99775.50;;;21.85;59.37
62849;BME280;48941;49.516;8.286;2022-08-14T06:37:41;99762.78;;;21.85;59.17
62849;BME280;48941;49.516;8.286;2022-08-14T06:40:11;99752.97;;;21.91;59.49
62849;BME280;48941;49.516;8.286;2022-08-14T06:42:55;99752.28;;;22.02;59.19
62849;BME280;48941;49.516;8.286;2022-08-14T06:45:29;99756.22;;;22.13;59.17
62849;BME280;48941;49.516;8.286;2022-08-14T06:47:58;99756.44;;;22.25;58.59
62849;BME280;48941;49.516;8.286;2022-08-14T06:50:28;99756.19;;;22.33;58.66
62849;BME280;48941;49.516;8.286;2022-08-14T06:52:59;99746.34;;;22.39;58.36
62849;BME280;48941;49.516;8.286;2022-08-14T06:55:27;99741.50;;;22.47;58.07
62849;BME280;48941;49.516;8.286;2022-08-14T06:57:55;99742.69;;;22.58;58.04
62849;BME280;48941;49.516;8.286;2022-08-14T07:00:25;99744.94;;;22.68;57.78
62849;BME280;48941;49.516;8.286;2022-08-14T07:02:58;99738.00;;;22.79;57.63
62849;BME280;48941;49.516;8.286;2022-08-14T07:05:47;99742.09;;;22.88;57.13
62849;BME280;48941;49.516;8.286;2022-08-14T07:08:24;99739.72;;;22.98;56.88
62849;BME280;48941;49.516;8.286;2022-08-14T07:10:58;99737.63;;;23.07;56.78
62849;BME280;48941;49.516;8.286;2022-08-14T07:13:27;99733.13;;;23.19;56.57
62849;BME280;48941;49.516;8.286;2022-08-14T07:15:57;99726.97;;;23.31;56.50
62849;BME280;48941;49.516;8.286;2022-08-14T07:18:29;99733.09;;;23.44;55.86
62849;BME280;48941;49.516;8.286;2022-08-14T07:20:58;99738.63;;;23.56;55.26
62849;BME280;48941;49.516;8.286;2022-08-14T07:23:26;99738.38;;;23.64;55.22
62849;BME280;48941;49.516;8.286;2022-08-14T07:25:58;99735.97;;;23.75;55.01
62849;BME280;48941;49.516;8.286;2022-08-14T07:28:29;99736.91;;;23.87;54.53
62849;BME280;48941;49.516;8.286;2022-08-14T07:31:00;99729.41;;;24.01;54.32
62849;BME280;48941;49.516;8.286;2022-08-14T07:33:36;99738.69;;;24.12;54.31
62849;BME280;48941;49.516;8.286;2022-08-14T07:36:09;99741.72;;;24.22;53.82
62849;BME280;48941;49.516;8.286;2022-08-14T07:38:56;99746.16;;;24.35;53.33
62849;BME280;48941;49.516;8.286;2022-08-14T07:41:24;99741.44;;;24.42;52.80
62849;BME280;48941;49.516;8.286;2022-08-14T07:44:00;99733.38;;;24.54;52.13
62849;BME280;48941;49.516;8.286;2022-08-14T07:46:48;99742.88;;;24.63;52.01
62849;BME280;48941;49.516;8.286;2022-08-14T07:49:17;99738.09;;;24.77;51.85
62849;BME280;48941;49.516;8.286;2022-08-14T07:51:49;99745.34;;;24.95;51.34
62849;BME280;48941;49.516;8.286;2022-08-14T07:54:17;99745.50;;;25.12;51.13
62849;BME280;48941;49.516;8.286;2022-08-14T07:56:58;99735.25;;;25.26;50.64
62849;BME280;48941;49.516;8.286;2022-08-14T07:59:38;99734.78;;;25.40;49.57
62849;BME280;48941;49.516;8.286;2022-08-14T08:02:10;99734.09;;;25.57;49.30
62849;BME280;48941;49.516;8.286;2022-08-14T08:04:49;99734.19;;;25.74;48.82
62849;BME280;48941;49.516;8.286;2022-08-14T08:07:21;99735.47;;;25.83;48.40
62849;BME280;48941;49.516;8.286;2022-08-14T08:09:53;99740.94;;;25.83;48.10
62849;BME280;48941;49.516;8.286;2022-08-14T08:12:24;99737.47;;;25.88;48.05
62849;BME280;48941;49.516;8.286;2022-08-14T08:14:56;99746.75;;;25.98;47.49
62849;BME280;48941;49.516;8.286;2022-08-14T08:17:34;99742.06;;;26.22;47.08
62849;BME280;48941;49.516;8.286;2022-08-14T08:20:14;99742.72;;;26.41;46.07
62849;BME280;48941;49.516;8.286;2022-08-14T08:22:46;99741.72;;;26.59;45.38
62849;BME280;48941;49.516;8.286;2022-08-14T08:25:21;99733.59;;;26.76;45.44
62849;BME280;48941;49.516;8.286;2022-08-14T08:28:03;99730.22;;;26.86;45.13
62849;BME280;48941;49.516;8.286;2022-08-14T08:30:36;99721.84;;;26.93;44.86
62849;BME280;48941;49.516;8.286;2022-08-14T08:33:16;99728.72;;;27.12;44.05
62849;BME280;48941;49.516;8.286;2022-08-14T08:35:46;99720.78;;;27.28;43.99
62849;BME280;48941;49.516;8.286;2022-08-14T08:38:18;99717.06;;;27.51;43.43
62849;BME280;48941;49.516;8.286;2022-08-14T08:41:06;99717.09;;;27.73;42.61
62849;BME280;48941;49.516;8.286;2022-08-14T08:43:37;99712.47;;;27.95;42.18
62849;BME280;48941;49.516;8.286;2022-08-14T08:46:13;99718.16;;;28.11;41.66
62849;BME280;48941;49.516;8.286;2022-08-14T08:48:49;99722.69;;;28.22;40.22
62849;BME280;48941;49.516;8.286;2022-08-14T08:51:22;99721.69;;;28.33;39.79
62849;BME280;48941;49.516;8.286;2022-08-14T08:54:01;99720.09;;;28.37;39.56
62849;BME280;48941;49.516;8.286;2022-08-14T08:56:38;99721.97;;;28.54;39.31
62849;BME280;48941;49.516;8.286;2022-08-14T08:59:19;99701.28;;;28.68;38.43
62849;BME280;48941;49.516;8.286;2022-08-14T09:01:49;99709.06;;;28.82;38.66
62849;BME280;48941;49.516;8.286;2022-08-14T09:04:23;99708.16;;;29.03;38.48
62849;BME280;48941;49.516;8.286;2022-08-14T09:06:53;99700.41;;;29.22;37.29
62849;BME280;48941;49.516;8.286;2022-08-14T09:09:37;99697.50;;;29.39;36.91
62849;BME280;48941;49.516;8.286;2022-08-14T09:12:25;99696.50;;;29.55;36.52
62849;BME280;48941;49.516;8.286;2022-08-14T09:14:59;99703.50;;;29.73;35.93
62849;BME280;48941;49.516;8.286;2022-08-14T09:17:27;99706.34;;;29.94;35.67
62849;BME280;48941;49.516;8.286;2022-08-14T09:19:55;99702.00;;;30.13;34.75
62849;BME280;48941;49.516;8.286;2022-08-14T09:22:31;99693.25;;;30.16;34.54
62849;BME280;48941;49.516;8.286;2022-08-14T09:25:12;99687.28;;;30.35;34.70
62849;BME280;48941;49.516;8.286;2022-08-14T09:27:41;99682.66;;;30.56;34.96
62849;BME280;48941;49.516;8.286;2022-08-14T09:30:10;99676.63;;;30.74;34.81
62849;BME280;48941;49.516;8.286;2022-08-14T09:35:59;99670.09;;;30.96;33.63
62849;BME280;48941;49.516;8.286;2022-08-14T09:38:43;99661.00;;;31.06;32.85
62849;BME280;48941;49.516;8.286;2022-08-14T09:41:29;99659.59;;;31.24;32.55
62849;BME280;48941;49.516;8.286;2022-08-14T09:44:31;99663.69;;;31.36;32.57
62849;BME280;48941;49.516;8.286;2022-08-14T09:47:00;99662.56;;;31.43;31.72
62849;BME280;48941;49.516;8.286;2022-08-14T09:49:30;99672.22;;;31.50;32.31
62849;BME280;48941;49.516;8.286;2022-08-14T09:52:07;99678.50;;;31.66;31.98
62849;BME280;48941;49.516;8.286;2022-08-14T09:54:58;99672.41;;;31.80;30.36
62849;BME280;48941;49.516;8.286;2022-08-14T09:57:28;99666.59;;;31.86;30.80
62849;BME280;48941;49.516;8.286;2022-08-14T09:59:57;99662.97;;;31.91;30.82
62849;BME280;48941;49.516;8.286;2022-08-14T10:02:55;99670.41;;;32.06;29.43
62849;BME280;48941;49.516;8.286;2022-08-14T10:05:32;99669.81;;;32.14;28.96
62849;BME280;48941;49.516;8.286;2022-08-14T10:08:16;99667.00;;;32.24;28.71
62849;BME280;48941;49.516;8.286;2022-08-14T10:10:53;99675.47;;;32.33;29.27
62849;BME280;48941;49.516;8.286;2022-08-14T10:13:28;99661.03;;;32.51;29.62
62849;BME280;48941;49.516;8.286;2022-08-14T10:16:15;99659.22;;;32.76;28.99
62849;BME280;48941;49.516;8.286;2022-08-14T10:19:01;99647.97;;;33.02;27.72
62849;BME280;48941;49.516;8.286;2022-08-14T10:21:33;99645.38;;;33.16;26.79
62849;BME280;48941;49.516;8.286;2022-08-14T10:24:26;99635.66;;;33.23;26.90
62849;BME280;48941;49.516;8.286;2022-08-14T10:27:13;99619.31;;;33.27;25.58
62849;BME280;48941;49.516;8.286;2022-08-14T10:29:48;99621.03;;;33.47;25.54
62849;BME280;48941;49.516;8.286;2022-08-14T10:32:17;99613.94;;;33.65;26.18
62849;BME280;48941;49.516;8.286;2022-08-14T10:35:05;99618.59;;;33.88;25.66
62849;BME280;48941;49.516;8.286;2022-08-14T10:37:41;99602.78;;;34.13;25.24
62849;BME280;48941;49.516;8.286;2022-08-14T10:40:13;99598.41;;;34.31;25.43
62849;BME280;48941;49.516;8.286;2022-08-14T10:43:15;99588.84;;;34.42;25.49
62849;BME280;48941;49.516;8.286;2022-08-14T10:45:52;99575.47;;;34.30;25.20
62849;BME280;48941;49.516;8.286;2022-08-14T10:48:28;99573.91;;;34.24;25.38
62849;BME280;48941;49.516;8.286;2022-08-14T10:51:06;99564.44;;;34.11;24.67
62849;BME280;48941;49.516;8.286;2022-08-14T10:53:35;99555.03;;;34.31;24.76
62849;BME280;48941;49.516;8.286;2022-08-14T10:56:08;99562.28;;;34.27;23.38
62849;BME280;48941;49.516;8.286;2022-08-14T10:59:01;99558.94;;;34.44;23.71
62849;BME280;48941;49.516;8.286;2022-08-14T11:01:30;99548.03;;;34.53;22.82
62849;BME280;48941;49.516;8.286;2022-08-14T11:04:19;99546.09;;;34.54;23.52
62849;BME280;48941;49.516;8.286;2022-08-14T11:06:56;99538.38;;;34.50;23.21
62849;BME280;48941;49.516;8.286;2022-08-14T11:09:24;99535.91;;;34.49;22.99
62849;BME280;48941;49.516;8.286;2022-08-14T11:11:57;99529.16;;;34.41;22.86
62849;BME280;48941;49.516;8.286;2022-08-14T11:14:51;99529.25;;;34.36;22.87
62849;BME280;48941;49.516;8.286;2022-08-14T11:17:29;99527.63;;;34.35;22.88
62849;BME280;48941;49.516;8.286;2022-08-14T11:19:59;99532.34;;;34.67;22.19
62849;BME280;48941;49.516;8.286;2022-08-14T11:22:29;99526.97;;;34.57;22.72
62849;BME280;48941;49.516;8.286;2022-08-14T11:25:17;99532.63;;;34.66;21.85
62849;BME280;48941;49.516;8.286;2022-08-14T11:27:47;99528.13;;;34.70;22.23
62849;BME280;48941;49.516;8.286;2022-08-14T11:30:18;99528.97;;;34.98;22.07
62849;BME280;48941;49.516;8.286;2022-08-14T11:33:07;99521.13;;;35.19;21.82
62849;BME280;48941;49.516;8.286;2022-08-14T11:35:36;99529.00;;;35.40;21.60
62849;BME280;48941;49.516;8.286;2022-08-14T11:38:13;99528.84;;;35.73;21.16
62849;BME280;48941;49.516;8.286;2022-08-14T11:40:43;99537.06;;;35.78;20.75
62849;BME280;48941;49.516;8.286;2022-08-14T11:43:14;99521.97;;;35.84;20.63
62849;BME280;48941;49.516;8.286;2022-08-14T11:45:45;99525.50;;;35.98;20.50
62849;BME280;48941;49.516;8.286;2022-08-14T11:48:18;99525.44;;;36.12;19.84
62849;BME280;48941;49.516;8.286;2022-08-14T11:51:11;99521.06;;;36.34;19.91
62849;BME280;48941;49.516;8.286;2022-08-14T11:53:41;99521.94;;;36.43;19.34
62849;BME280;48941;49.516;8.286;2022-08-14T11:56:11;99521.03;;;36.56;19.15
62849;BME280;48941;49.516;8.286;2022-08-14T11:58:39;99512.72;;;36.56;19.19
62849;BME280;48941;49.516;8.286;2022-08-14T12:01:09;99504.50;;;36.65;18.84
62849;BME280;48941;49.516;8.286;2022-08-14T12:03:39;99504.09;;;36.58;19.36
62849;BME280;48941;49.516;8.286;2022-08-14T12:06:23;99503.47;;;36.61;19.34
62849;BME280;48941;49.516;8.286;2022-08-14T12:09:05;99504.41;;;36.56;19.03
62849;BME280;48941;49.516;8.286;2022-08-14T12:11:41;99492.47;;;36.47;19.45
62849;BME280;48941;49.516;8.286;2022-08-14T12:14:14;99495.56;;;36.54;19.34
62849;BME280;48941;49.516;8.286;2022-08-14T12:17:03;99495.94;;;36.61;18.47
62849;BME280;48941;49.516;8.286;2022-08-14T12:19:43;99491.13;;;36.67;18.88
62849;BME280;48941;49.516;8.286;2022-08-14T12:25:04;99471.13;;;36.56;18.92
62849;BME280;48941;49.516;8.286;2022-08-14T12:27:39;99471.31;;;36.60;18.63
62849;BME280;48941;49.516;8.286;2022-08-14T12:30:24;99465.72;;;36.82;18.59
62849;BME280;48941;49.516;8.286;2022-08-14T12:33:05;99462.97;;;36.91;18.42
62849;BME280;48941;49.516;8.286;2022-08-14T12:35:43;99458.72;;;36.85;18.58
62849;BME280;48941;49.516;8.286;2022-08-14T12:38:12;99454.47;;;36.87;17.94
62849;BME280;48941;49.516;8.286;2022-08-14T12:40:48;99449.56;;;36.84;18.26
62849;BME280;48941;49.516;8.286;2022-08-14T12:43:18;99446.91;;;36.71;18.59
62849;BME280;48941;49.516;8.286;2022-08-14T12:45:48;99433.06;;;36.79;18.27
62849;BME280;48941;49.516;8.286;2022-08-14T12:48:18;99433.28;;;36.92;17.88
62849;BME280;48941;49.516;8.286;2022-08-14T12:50:58;99434.94;;;37.01;18.47
62849;BME280;48941;49.516;8.286;2022-08-14T12:53:33;99426.19;;;37.17;17.90
62849;BME280;48941;49.516;8.286;2022-08-14T12:56:04;99427.16;;;37.12;18.01
62849;BME280;48941;49.516;8.286;2022-08-14T12:58:55;99419.09;;;37.02;17.67
62849;BME280;48941;49.516;8.286;2022-08-14T13:01:25;99416.50;;;37.05;17.85
62849;BME280;48941;49.516;8.286;2022-08-14T13:04:07;99428.25;;;37.11;18.06
62849;BME280;48941;49.516;8.286;2022-08-14T13:06:37;99421.56;;;37.03;17.88
62849;BME280;48941;49.516;8.286;2022-08-14T13:09:07;99424.94;;;36.92;18.37
62849;BME280;48941;49.516;8.286;2022-08-14T13:11:40;99417.44;;;36.92;17.92
62849;BME280;48941;49.516;8.286;2022-08-14T13:14:11;99414.16;;;36.81;18.05
62849;BME280;48941;49.516;8.286;2022-08-14T13:16:43;99406.97;;;36.80;18.34
62849;BME280;48941;49.516;8.286;2022-08-14T13:19:18;99395.56;;;36.91;18.34
62849;BME280;48941;49.516;8.286;2022-08-14T13:21:51;99391.47;;;36.88;18.19
62849;BME280;48941;49.516;8.286;2022-08-14T13:24:32;99390.84;;;36.91;18.01
62849;BME280;48941;49.516;8.286;2022-08-14T13:27:01;99388.75;;;36.97;18.19
62849;BME280;48941;49.516;8.286;2022-08-14T13:29:35;99389.16;;;36.73;17.88
62849;BME280;48941;49.516;8.286;2022-08-14T13:32:06;99389.16;;;36.73;18.39
62849;BME280;48941;49.516;8.286;2022-08-14T13:34:38;99383.78;;;36.76;18.69
62849;BME280;48941;49.516;8.286;2022-08-14T13:37:12;99379.22;;;36.72;18.63
62849;BME280;48941;49.516;8.286;2022-08-14T13:39:46;99376.91;;;36.65;18.60
62849;BME280;48941;49.516;8.286;2022-08-14T13:42:24;99366.31;;;36.76;18.37
62849;BME280;48941;49.516;8.286;2022-08-14T13:44:58;99365.84;;;36.74;18.29
62849;BME280;48941;49.516;8.286;2022-08-14T13:47:28;99358.50;;;36.78;18.17
62849;BME280;48941;49.516;8.286;2022-08-14T13:50:01;99352.13;;;36.77;18.82